Time;durP1;ratioP1;P1;durP2;ratioP2;P2;SDS_P1;SDS_P2;PMS_P1;PMS_P2;Temp;Humidity;BMP_temperature;BMP_pressure;BME280_temperature;BME280_humidity;BME280_pressure;Samples;Min_cycle;Max_cycle;Signal;HPM_P1;HPM_P2
2023/05/02 00:00:27;;;;;;;1.40;0.65;;;20.30;60.80;;;;;;5005401;28;20145;-72
2023/05/02 00:02:54;;;;;;;2.40;0.80;;;20.30;60.80;;;;;;5008642;28;20056;-72
2023/05/02 00:05:22;;;;;;;1.38;0.50;;;20.30;60.80;;;;;;5008639;28;20061;-72
2023/05/02 00:07:51;;;;;;;1.70;0.65;;;20.30;60.80;;;;;;5008623;28;20179;-72
2023/05/02 00:10:18;;;;;;;2.15;0.70;;;20.30;60.80;;;;;;5001935;28;20050;-72
2023/05/02 00:12:45;;;;;;;2.20;0.75;;;20.30;60.80;;;;;;5004716;28;20065;-71
2023/05/02 00:15:12;;;;;;;1.38;0.60;;;20.30;60.80;;;;;;5009070;28;20050;-72
2023/05/02 00:17:40;;;;;;;1.92;0.68;;;20.30;60.80;;;;;;5007978;28;20407;-72
2023/05/02 00:20:09;;;;;;;1.90;0.90;;;20.30;60.80;;;;;;5007201;28;20474;-71
2023/05/02 00:22:39;;;;;;;1.90;0.63;;;20.30;60.90;;;;;;5010005;28;20053;-72
2023/05/02 00:25:08;;;;;;;1.67;0.77;;;20.30;60.90;;;;;;5007448;28;20056;-71
2023/05/02 00:27:35;;;;;;;1.88;0.68;;;20.30;60.90;;;;;;5013076;28;20050;-71
2023/05/02 00:30:02;;;;;;;1.35;0.52;;;20.30;60.90;;;;;;5009633;28;20053;-72
2023/05/02 00:32:29;;;;;;;2.75;0.77;;;20.30;60.90;;;;;;5008870;28;20046;-71
2023/05/02 00:34:56;;;;;;;2.22;0.63;;;20.30;60.90;;;;;;5007671;28;20050;-71
2023/05/02 00:37:26;;;;;;;1.77;0.70;;;20.30;60.90;;;;;;5009118;28;20057;-71
2023/05/02 00:39:53;;;;;;;1.83;0.75;;;20.30;60.90;;;;;;5008644;28;20533;-71
2023/05/02 00:42:21;;;;;;;1.85;0.80;;;20.20;60.80;;;;;;5006065;28;20050;-70
2023/05/02 00:44:48;;;;;;;1.73;0.95;;;20.20;60.80;;;;;;5012671;28;20379;-71
2023/05/02 00:47:16;;;;;;;2.30;0.93;;;20.20;60.80;;;;;;5008682;28;20060;-72
2023/05/02 00:49:43;;;;;;;1.30;0.50;;;20.30;60.90;;;;;;5007899;28;20054;-72
2023/05/02 00:52:10;;;;;;;1.73;0.82;;;20.30;60.80;;;;;;5003776;28;20054;-71
2023/05/02 00:54:38;;;;;;;1.73;0.77;;;20.20;60.80;;;;;;5008035;28;20491;-71
2023/05/02 00:57:05;;;;;;;2.25;0.73;;;20.20;60.80;;;;;;5007178;28;20050;-71
2023/05/02 00:59:34;;;;;;;1.90;0.82;;;20.20;60.80;;;;;;5006513;28;20058;-71
2023/05/02 01:02:05;;;;;;;;;;;20.20;60.90;;;;;;5006333;28;20073;-71
2023/05/02 01:04:43;;;;;;;1.92;0.70;;;20.20;60.80;;;;;;5008544;28;19932;-71
2023/05/02 01:07:35;;;;;;;1.88;0.65;;;20.20;60.80;;;;;;5008610;28;20112;-71
2023/05/02 01:10:16;;;;;;;2.03;0.63;;;20.20;60.80;;;;;;4999645;28;20566;-71
2023/05/02 01:12:46;;;;;;;1.48;0.45;;;20.20;60.90;;;;;;5006449;28;20496;-72
2023/05/02 01:15:18;;;;;;;2.38;0.70;;;20.20;60.80;;;;;;5007450;28;20503;-71
2023/05/02 01:17:48;;;;;;;1.42;0.50;;;20.20;60.90;;;;;;5007818;28;20458;-71
2023/05/02 01:20:19;;;;;;;1.83;0.60;;;20.20;60.90;;;;;;4999986;28;20050;-71
2023/05/02 01:22:47;;;;;;;1.77;0.65;;;20.20;60.90;;;;;;5006107;28;20148;-71
2023/05/02 01:25:26;;;;;;;1.70;0.65;;;20.20;60.90;;;;;;5002455;28;20042;-71
2023/05/02 01:28:05;;;;;;;1.70;0.60;;;20.10;60.90;;;;;;4999038;28;20053;-70
2023/05/02 01:30:36;;;;;;;1.65;0.45;;;20.10;60.90;;;;;;5008647;28;20046;-70
2023/05/02 01:33:04;;;;;;;1.52;0.70;;;20.10;60.90;;;;;;5008591;28;20468;-72
2023/05/02 01:35:34;;;;;;;1.70;0.70;;;20.10;60.90;;;;;;5011742;28;20422;-71
2023/05/02 01:38:03;;;;;;;1.73;0.90;;;20.10;60.90;;;;;;5001231;28;20049;-71
2023/05/02 01:40:31;;;;;;;1.30;0.50;;;20.10;60.90;;;;;;5008942;28;20042;-72
2023/05/02 01:42:59;;;;;;;1.75;0.80;;;20.10;60.90;;;;;;5009402;28;20249;-72
2023/05/02 01:45:28;;;;;;;1.73;0.60;;;20.10;60.90;;;;;;5007160;28;20495;-71
2023/05/02 01:47:57;;;;;;;2.13;0.47;;;20.10;60.90;;;;;;5008071;28;20071;-71
2023/05/02 01:50:26;;;;;;;1.70;0.70;;;20.10;60.90;;;;;;5003935;28;20522;-72
2023/05/02 01:52:55;;;;;;;1.67;0.60;;;20.10;60.90;;;;;;5009736;28;20041;-72
2023/05/02 01:55:23;;;;;;;1.67;0.55;;;20.10;60.90;;;;;;5008768;28;20049;-71
2023/05/02 01:57:51;;;;;;;2.20;0.70;;;20.10;60.90;;;;;;5007144;28;20054;-71
2023/05/02 02:00:19;;;;;;;1.50;0.63;;;20.10;60.90;;;;;;5008900;28;20060;-71
2023/05/02 02:02:48;;;;;;;1.90;0.70;;;20.10;60.90;;;;;;5007293;28;20050;-71
2023/05/02 02:05:18;;;;;;;2.70;0.82;;;20.10;60.90;;;;;;5006924;28;20136;-71
2023/05/02 02:07:45;;;;;;;2.50;1.00;;;20.10;60.90;;;;;;5008866;28;20053;-71
2023/05/02 02:10:13;;;;;;;2.17;0.57;;;20.00;60.90;;;;;;5008015;28;20153;-71
2023/05/02 02:12:42;;;;;;;2.92;0.40;;;20.10;60.90;;;;;;5008743;28;20058;-71
2023/05/02 02:15:18;;;;;;;1.83;0.40;;;20.10;60.90;;;;;;5005324;28;20053;-72
2023/05/02 02:17:50;;;;;;;1.63;0.75;;;20.10;60.90;;;;;;5004566;28;20038;-70
2023/05/02 02:20:19;;;;;;;1.65;0.63;;;20.00;60.90;;;;;;5001563;28;20133;-71
2023/05/02 02:22:47;;;;;;;1.35;0.68;;;20.10;60.90;;;;;;5004739;28;20076;-71
2023/05/02 02:25:16;;;;;;;1.98;0.93;;;20.10;60.90;;;;;;5005799;28;20060;-71
2023/05/02 02:27:43;;;;;;;1.30;0.40;;;20.00;60.90;;;;;;5005786;28;20854;-71
2023/05/02 02:30:11;;;;;;;2.28;0.52;;;20.00;60.90;;;;;;5003680;28;20061;-72
2023/05/02 02:32:38;;;;;;;1.95;1.02;;;20.00;60.90;;;;;;5007528;28;20061;-72
2023/05/02 02:35:06;;;;;;;2.10;0.50;;;20.00;60.90;;;;;;5005352;28;20130;-71
2023/05/02 02:37:39;;;;;;;2.13;0.60;;;20.00;60.90;;;;;;5005846;28;20061;-71
2023/05/02 02:40:17;;;;;;;2.47;0.55;;;20.00;61.00;;;;;;5005682;28;20045;-72
2023/05/02 02:42:50;;;;;;;2.92;0.65;;;20.00;60.90;;;;;;5001082;28;20538;-72
2023/05/02 02:45:27;;;;;;;3.50;0.57;;;20.00;60.90;;;;;;5005114;28;20061;-72
2023/05/02 02:48:07;;;;;;;1.52;0.50;;;19.90;60.90;;;;;;5007205;28;20096;-72
2023/05/02 02:50:41;;;;;;;1.38;0.65;;;19.90;60.90;;;;;;5001393;28;20053;-71
2023/05/02 02:53:17;;;;;;;1.38;0.50;;;19.90;60.90;;;;;;5007520;28;20060;-71
2023/05/02 02:55:48;;;;;;;1.65;0.70;;;19.90;61.00;;;;;;5006690;28;20581;-71
2023/05/02 02:58:28;;;;;;;2.20;0.60;;;20.00;61.60;;;;;;5006533;28;20073;-72
2023/05/02 03:00:56;;;;;;;1.40;0.40;;;19.90;61.00;;;;;;5001034;28;20499;-71
2023/05/02 03:03:27;;;;;;;2.13;0.60;;;20.00;61.00;;;;;;5003292;28;20053;-70
2023/05/02 03:05:55;;;;;;;1.73;0.60;;;19.90;61.00;;;;;;5007453;28;20069;-71
2023/05/02 03:08:24;;;;;;;1.42;0.40;;;19.90;61.00;;;;;;5004776;28;20057;-71
2023/05/02 03:10:51;;;;;;;1.52;0.63;;;19.90;61.00;;;;;;5004764;28;20057;-72
2023/05/02 03:13:18;;;;;;;1.38;0.50;;;19.90;61.00;;;;;;5007444;28;20049;-71
2023/05/02 03:16:23;;;;;;;1.90;0.80;;;19.90;61.00;;;;;;5004472;28;20080;-72
2023/05/02 03:18:50;;;;;;;1.70;0.50;;;19.90;61.00;;;;;;5000672;28;20060;-71
2023/05/02 03:21:17;;;;;;;1.67;0.47;;;19.90;61.00;;;;;;5004641;28;20057;-72
2023/05/02 03:23:45;;;;;;;1.65;0.55;;;19.90;60.90;;;;;;5005734;28;20501;-71
2023/05/02 03:26:12;;;;;;;2.42;0.88;;;19.90;61.00;;;;;;5004170;28;20506;-71
2023/05/02 03:28:39;;;;;;;2.10;0.60;;;19.90;61.00;;;;;;5004574;28;20396;-72
2023/05/02 03:31:06;;;;;;;2.17;0.70;;;19.90;60.90;;;;;;5006083;28;20068;-72
2023/05/02 03:33:33;;;;;;;1.88;0.60;;;19.90;60.90;;;;;;5000362;28;20061;-71
2023/05/02 03:36:00;;;;;;;1.70;0.57;;;19.90;61.00;;;;;;5004580;28;20518;-72
2023/05/02 03:38:29;;;;;;;1.60;0.43;;;19.90;60.90;;;;;;5005408;28;20092;-71
2023/05/02 03:40:58;;;;;;;1.35;0.65;;;19.90;60.90;;;;;;5002774;28;20065;-72
2023/05/02 03:43:25;;;;;;;1.90;0.80;;;19.90;60.90;;;;;;5006404;28;20053;-72
2023/05/02 03:45:52;;;;;;;1.50;0.50;;;19.90;60.90;;;;;;5009147;28;20049;-72
2023/05/02 03:48:19;;;;;;;2.42;0.57;;;19.90;60.90;;;;;;5008695;28;20116;-72
2023/05/02 03:50:46;;;;;;;1.70;0.52;;;19.80;60.90;;;;;;5008486;28;20042;-71
2023/05/02 03:53:14;;;;;;;2.00;0.60;;;19.80;60.90;;;;;;5010131;28;20090;-71
2023/05/02 03:55:42;;;;;;;1.55;0.63;;;19.80;60.90;;;;;;5008725;28;20103;-71
2023/05/02 03:58:11;;;;;;;1.40;0.60;;;19.80;60.90;;;;;;5009071;28;20050;-71
2023/05/02 04:00:38;;;;;;;2.83;1.00;;;19.80;60.90;;;;;;5006323;28;20061;-71
2023/05/02 04:03:05;;;;;;;1.15;0.40;;;19.80;60.90;;;;;;5008297;28;20364;-71
2023/05/02 04:05:32;;;;;;;1.50;0.50;;;19.80;60.90;;;;;;5006250;28;20050;-72
2023/05/02 04:08:01;;;;;;;2.15;0.60;;;19.80;60.90;;;;;;5007655;28;20057;-72
2023/05/02 04:10:28;;;;;;;1.92;0.55;;;19.80;60.90;;;;;;5010445;28;20128;-72
2023/05/02 04:12:55;;;;;;;1.83;0.65;;;19.80;60.90;;;;;;5007979;28;20049;-71
2023/05/02 04:15:23;;;;;;;1.40;0.55;;;19.80;60.90;;;;;;5009468;28;20064;-71
2023/05/02 04:17:50;;;;;;;2.00;0.50;;;19.80;60.90;;;;;;5001734;28;20054;-71
2023/05/02 04:20:17;;;;;;;2.55;0.70;;;19.80;60.90;;;;;;5007919;28;20050;-72
2023/05/02 04:22:45;;;;;;;1.48;0.52;;;19.70;60.80;;;;;;5008106;28;20719;-71
2023/05/02 04:25:12;;;;;;;1.60;0.50;;;19.80;60.90;;;;;;5009100;28;20439;-71
2023/05/02 04:27:38;;;;;;;1.55;0.60;;;19.80;60.90;;;;;;5006259;28;20057;-70
2023/05/02 04:30:07;;;;;;;1.92;0.70;;;19.70;60.80;;;;;;5008303;28;20112;-71
2023/05/02 04:32:35;;;;;;;2.28;0.82;;;19.70;60.80;;;;;;5006819;28;20072;-71
2023/05/02 04:35:02;;;;;;;1.15;0.45;;;19.80;60.90;;;;;;5007975;28;20061;-71
2023/05/02 04:37:29;;;;;;;1.58;0.40;;;19.70;60.80;;;;;;5008013;28;20640;-71
2023/05/02 04:39:56;;;;;;;1.52;0.73;;;19.70;60.80;;;;;;5008323;28;20046;-70
2023/05/02 04:42:23;;;;;;;1.85;0.32;;;19.70;60.80;;;;;;5009548;28;20060;-71
2023/05/02 04:44:50;;;;;;;1.67;0.60;;;19.70;60.80;;;;;;5005758;28;20064;-71
2023/05/02 04:47:17;;;;;;;1.98;0.40;;;19.70;60.80;;;;;;5008593;28;20761;-70
2023/05/02 04:49:46;;;;;;;2.10;0.52;;;19.70;60.80;;;;;;5004400;28;20061;-72
2023/05/02 04:52:13;;;;;;;2.13;0.70;;;19.70;60.80;;;;;;5004899;28;20046;-71
2023/05/02 04:54:40;;;;;;;1.05;0.40;;;19.70;60.80;;;;;;5004619;28;20053;-71
2023/05/02 04:57:09;;;;;;;1.35;0.50;;;19.70;60.80;;;;;;5005597;28;20057;-71
2023/05/02 04:59:37;;;;;;;2.25;0.68;;;19.70;60.80;;;;;;5007452;28;20049;-71
2023/05/02 05:02:04;;;;;;;1.70;0.55;;;19.70;60.80;;;;;;5005536;28;20058;-72
2023/05/02 05:04:31;;;;;;;1.67;0.43;;;19.70;60.80;;;;;;5002688;28;20108;-71
2023/05/02 05:07:00;;;;;;;1.80;0.50;;;19.70;60.70;;;;;;5005482;28;20054;-72
2023/05/02 05:09:27;;;;;;;1.60;0.45;;;19.70;60.70;;;;;;5006400;28;20468;-72
2023/05/02 05:11:53;;;;;;;2.17;0.60;;;19.70;60.70;;;;;;5005214;28;20574;-71
2023/05/02 05:14:21;;;;;;;2.20;0.60;;;19.70;60.70;;;;;;5007074;28;20041;-71
2023/05/02 05:16:48;;;;;;;1.63;0.50;;;19.70;60.70;;;;;;5011217;28;20129;-71
2023/05/02 05:19:15;;;;;;;1.33;0.35;;;19.70;61.30;;;;;;5006513;28;20057;-71
2023/05/02 05:21:42;;;;;;;1.73;0.50;;;19.70;60.70;;;;;;5005689;28;20046;-71
2023/05/02 05:24:10;;;;;;;1.75;0.60;;;19.70;60.70;;;;;;5005544;28;20061;-71
2023/05/02 05:26:37;;;;;;;1.77;0.52;;;19.70;60.70;;;;;;5006753;28;20058;-72
2023/05/02 05:29:04;;;;;;;1.98;0.52;;;19.60;60.70;;;;;;5006016;28;20045;-72
2023/05/02 05:31:31;;;;;;;2.17;0.43;;;19.70;60.70;;;;;;5005517;28;20050;-72
2023/05/02 05:34:00;;;;;;;1.65;0.40;;;19.70;60.70;;;;;;5009210;28;20042;-72
2023/05/02 05:36:27;;;;;;;1.52;0.52;;;19.70;60.70;;;;;;5005717;28;21960;-72
2023/05/02 05:38:53;;;;;;;1.42;0.43;;;19.60;60.60;;;;;;5003428;28;20068;-71
2023/05/02 05:41:23;;;;;;;2.42;0.75;;;19.70;60.60;;;;;;5006878;28;20058;-71
2023/05/02 05:43:50;;;;;;;1.52;0.50;;;19.60;60.60;;;;;;5000701;28;20049;-71
2023/05/02 05:46:17;;;;;;;1.50;0.65;;;19.70;60.60;;;;;;5005573;28;20070;-72
2023/05/02 05:48:44;;;;;;;1.90;0.50;;;19.60;60.60;;;;;;5004300;28;20045;-72
2023/05/02 05:51:11;;;;;;;1.90;0.50;;;19.60;60.60;;;;;;5003130;28;20058;-71
2023/05/02 05:53:38;;;;;;;2.90;0.55;;;19.70;60.60;;;;;;5009161;28;20061;-71
2023/05/02 05:56:11;;;;;;;1.52;0.52;;;19.70;61.10;;;;;;5008277;28;20050;-72
2023/05/02 05:58:41;;;;;;;1.17;0.40;;;19.60;60.50;;;;;;5006681;28;20149;-72
2023/05/02 06:01:08;;;;;;;1.98;0.57;;;19.60;60.50;;;;;;5008605;28;20084;-71
2023/05/02 06:03:35;;;;;;;1.55;0.40;;;19.70;60.60;;;;;;5007892;28;20049;-71
2023/05/02 06:06:02;;;;;;;1.95;0.57;;;19.70;60.50;;;;;;5009152;28;20049;-72
2023/05/02 06:08:34;;;;;;;1.80;0.43;;;19.60;60.60;;;;;;5007522;28;20145;-72
2023/05/02 06:11:01;;;;;;;1.83;0.38;;;19.70;60.50;;;;;;5003221;28;20065;-72
2023/05/02 06:13:28;;;;;;;1.67;0.40;;;19.70;60.50;;;;;;5004459;28;20107;-71
2023/05/02 06:16:00;;;;;;;2.13;0.55;;;19.70;60.50;;;;;;5003802;28;20057;-71
2023/05/02 06:18:27;;;;;;;1.88;0.40;;;19.70;60.50;;;;;;5006776;28;20057;-72
2023/05/02 06:20:54;;;;;;;1.55;0.40;;;19.70;60.40;;;;;;5004396;28;20049;-72
2023/05/02 06:23:21;;;;;;;2.97;0.60;;;19.70;60.50;;;;;;5005869;28;20534;-76
2023/05/02 06:25:48;;;;;;;1.52;0.50;;;19.70;60.50;;;;;;5007366;28;20057;-72
2023/05/02 06:28:15;;;;;;;2.92;0.60;;;19.70;60.50;;;;;;4997092;28;20053;-73
2023/05/02 06:30:42;;;;;;;1.50;0.50;;;19.70;60.50;;;;;;5006298;28;20066;-73
2023/05/02 06:33:11;;;;;;;1.88;0.47;;;19.70;60.60;;;;;;5004109;28;20065;-73
2023/05/02 06:35:38;;;;;;;1.77;0.40;;;19.70;60.50;;;;;;4998065;28;20042;-73
2023/05/02 06:38:04;;;;;;;1.95;0.45;;;19.70;60.50;;;;;;5001833;28;20482;-73
2023/05/02 06:40:32;;;;;;;3.08;0.82;;;19.70;60.50;;;;;;5013877;28;20045;-74
2023/05/02 06:42:59;;;;;;;2.58;0.55;;;19.70;60.50;;;;;;5007635;28;20137;-74
2023/05/02 06:45:27;;;;;;;1.60;0.70;;;19.70;60.50;;;;;;5007583;28;20042;-74
2023/05/02 06:47:54;;;;;;;1.60;0.60;;;19.70;60.50;;;;;;5007493;28;20081;-72
2023/05/02 06:50:22;;;;;;;1.88;0.68;;;19.70;60.40;;;;;;5005874;28;20053;-73
2023/05/02 06:52:49;;;;;;;3.05;0.73;;;19.70;60.50;;;;;;5003619;28;20061;-73
2023/05/02 06:55:16;;;;;;;1.60;0.43;;;19.70;60.40;;;;;;5004944;28;20519;-72
2023/05/02 06:57:43;;;;;;;1.77;0.57;;;19.70;60.40;;;;;;5002791;28;20046;-72
2023/05/02 07:00:11;;;;;;;2.03;0.45;;;19.70;60.40;;;;;;5002505;28;20050;-72
2023/05/02 07:02:38;;;;;;;1.65;0.30;;;19.70;60.40;;;;;;4999535;28;20097;-73
2023/05/02 07:05:06;;;;;;;1.13;0.32;;;19.70;60.40;;;;;;5006388;28;20053;-73
2023/05/02 07:07:34;;;;;;;2.65;0.45;;;19.70;60.30;;;;;;5003100;28;20057;-73
2023/05/02 07:10:01;;;;;;;1.90;0.70;;;19.70;60.30;;;;;;5003079;28;20038;-73
2023/05/02 07:12:28;;;;;;;1.88;0.60;;;19.70;60.20;;;;;;5003091;28;20057;-73
2023/05/02 07:14:55;;;;;;;2.10;0.70;;;19.70;60.20;;;;;;5013669;28;20078;-73
2023/05/02 07:17:24;;;;;;;1.95;0.50;;;19.70;60.20;;;;;;5004655;28;20510;-72
2023/05/02 07:19:51;;;;;;;1.02;0.43;;;19.70;60.20;;;;;;5007289;28;20123;-73
2023/05/02 07:22:18;;;;;;;1.33;0.45;;;19.70;60.10;;;;;;5008727;28;20049;-72
2023/05/02 07:24:46;;;;;;;2.08;0.52;;;19.70;60.10;;;;;;5010389;28;20053;-73
2023/05/02 07:27:14;;;;;;;1.85;0.50;;;19.70;60.10;;;;;;5009140;28;20069;-72
2023/05/02 07:29:41;;;;;;;1.65;0.60;;;19.70;60.10;;;;;;5005324;28;20069;-73
2023/05/02 07:32:08;;;;;;;1.58;0.50;;;19.70;60.10;;;;;;5005942;28;20050;-72
2023/05/02 07:34:35;;;;;;;1.70;0.60;;;19.80;60.20;;;;;;5008007;28;20097;-73
2023/05/02 07:37:02;;;;;;;2.38;0.60;;;19.70;60.10;;;;;;5008308;28;20083;-73
2023/05/02 07:39:29;;;;;;;3.03;0.63;;;19.70;60.10;;;;;;5007483;28;20045;-72
2023/05/02 07:41:57;;;;;;;1.70;0.60;;;19.80;60.10;;;;;;5007225;28;20061;-73
2023/05/02 07:44:24;;;;;;;1.42;0.50;;;19.80;60.20;;;;;;5003860;28;20046;-73
2023/05/02 07:46:52;;;;;;;1.45;0.45;;;19.80;60.10;;;;;;5007511;28;20050;-72
2023/05/02 07:49:19;;;;;;;2.88;0.50;;;19.80;60.10;;;;;;5006213;28;20077;-72
2023/05/02 07:51:46;;;;;;;1.52;0.32;;;19.80;60.10;;;;;;5003392;28;20574;-72
2023/05/02 07:54:17;;;;;;;1.60;0.90;;;19.80;60.00;;;;;;5008077;28;20053;-73
2023/05/02 07:56:44;;;;;;;1.45;0.40;;;19.80;60.00;;;;;;5005688;28;20073;-72
2023/05/02 07:59:12;;;;;;;1.98;0.63;;;19.80;60.00;;;;;;5006539;28;20049;-72
2023/05/02 08:01:40;;;;;;;2.05;0.60;;;19.80;60.00;;;;;;5010039;28;20079;-73
2023/05/02 08:04:09;;;;;;;1.42;0.55;;;19.80;60.00;;;;;;5007789;28;20462;-72
2023/05/02 08:06:35;;;;;;;1.70;0.50;;;19.80;60.00;;;;;;5007113;28;20053;-72
2023/05/02 08:09:03;;;;;;;2.08;0.32;;;19.90;60.00;;;;;;5007408;28;20103;-73
2023/05/02 08:11:30;;;;;;;1.92;0.57;;;19.80;59.90;;;;;;5008202;28;20042;-73
2023/05/02 08:13:57;;;;;;;1.85;0.68;;;19.90;60.60;;;;;;5007007;28;20054;-74
2023/05/02 08:16:25;;;;;;;2.53;0.50;;;19.80;59.90;;;;;;5005217;28;20066;-72
2023/05/02 08:18:52;;;;;;;1.38;0.47;;;19.90;60.00;;;;;;5007024;28;20065;-73
2023/05/02 08:21:19;;;;;;;1.55;0.50;;;19.90;60.00;;;;;;5007566;28;20049;-73
2023/05/02 08:23:46;;;;;;;1.40;0.50;;;19.90;60.00;;;;;;5008408;28;20053;-72
2023/05/02 08:26:14;;;;;;;1.77;0.77;;;19.90;60.00;;;;;;5007080;28;20439;-73
2023/05/02 08:28:41;;;;;;;2.00;0.40;;;19.90;59.90;;;;;;5005024;28;20123;-73
2023/05/02 08:31:08;;;;;;;1.58;0.43;;;19.90;59.90;;;;;;5007514;28;20042;-73
2023/05/02 08:33:36;;;;;;;3.35;0.75;;;19.90;59.90;;;;;;5006412;28;20050;-72
2023/05/02 08:36:11;;;;;;;1.42;0.60;;;19.90;59.90;;;;;;5007089;28;20045;-72
2023/05/02 08:38:37;;;;;;;1.90;0.63;;;20.00;59.90;;;;;;5005542;28;20650;-72
2023/05/02 08:41:10;;;;;;;2.42;0.50;;;20.00;59.90;;;;;;5008092;28;20058;-72
2023/05/02 08:43:38;;;;;;;1.77;0.50;;;20.00;59.90;;;;;;5007270;28;20053;-72
2023/05/02 08:46:07;;;;;;;1.73;0.50;;;20.00;59.80;;;;;;5006832;28;20241;-72
2023/05/02 08:48:38;;;;;;;2.10;0.60;;;20.10;59.80;;;;;;5001736;28;20501;-72
2023/05/02 08:51:09;;;;;;;1.88;0.50;;;20.10;59.80;;;;;;5005098;28;20060;-73
2023/05/02 08:53:37;;;;;;;3.10;0.45;;;20.10;59.70;;;;;;5008375;28;20407;-73
2023/05/02 08:56:04;;;;;;;1.60;0.73;;;20.10;59.70;;;;;;5006210;28;20061;-72
2023/05/02 08:58:31;;;;;;;1.52;0.50;;;20.10;59.60;;;;;;5006975;28;20057;-72
2023/05/02 09:01:01;;;;;;;1.88;0.63;;;20.20;59.70;;;;;;5006053;28;20483;-72
2023/05/02 09:03:30;;;;;;;2.00;0.40;;;20.20;59.60;;;;;;5006461;28;20069;-73
2023/05/02 09:06:05;;;;;;;1.90;0.40;;;20.20;59.50;;;;;;5005012;28;20058;-73
2023/05/02 09:08:33;;;;;;;1.40;0.45;;;20.20;59.60;;;;;;5007087;28;20140;-73
2023/05/02 09:11:02;;;;;;;1.70;0.40;;;20.30;59.60;;;;;;5006956;28;20503;-73
2023/05/02 09:13:34;;;;;;;1.30;0.30;;;20.20;59.50;;;;;;5010030;28;20034;-72
2023/05/02 09:16:02;;;;;;;1.70;0.25;;;20.20;59.50;;;;;;4998541;28;20050;-72
2023/05/02 09:18:31;;;;;;;3.17;0.60;;;20.20;59.50;;;;;;5006672;28;20066;-72
2023/05/02 09:21:01;;;;;;;1.73;0.30;;;20.20;59.40;;;;;;5001472;28;20111;-73
2023/05/02 09:23:35;;;;;;;2.20;0.50;;;20.20;59.40;;;;;;5001889;28;20917;-73
2023/05/02 09:26:10;;;;;;;1.52;0.45;;;20.20;59.40;;;;;;5002125;28;20050;-73
2023/05/02 09:28:42;;;;;;;1.55;0.40;;;20.20;59.40;;;;;;4999820;28;20052;-74
2023/05/02 09:31:11;;;;;;;1.90;0.30;;;20.20;59.40;;;;;;5001782;28;20076;-73
2023/05/02 09:33:39;;;;;;;1.58;0.60;;;20.20;59.50;;;;;;5003492;28;20079;-72
2023/05/02 09:36:09;;;;;;;2.33;0.57;;;20.20;59.50;;;;;;5004101;28;20065;-73
2023/05/02 09:38:36;;;;;;;2.13;0.50;;;20.20;60.00;;;;;;5000504;28;20070;-73
2023/05/02 09:41:03;;;;;;;2.33;0.70;;;20.20;59.40;;;;;;5004320;28;20076;-73
2023/05/02 09:43:31;;;;;;;1.27;0.30;;;20.20;59.40;;;;;;5003404;28;20049;-73
2023/05/02 09:46:00;;;;;;;1.70;0.45;;;20.20;59.40;;;;;;5005345;28;20580;-73
2023/05/02 09:48:28;;;;;;;1.40;0.40;;;20.20;59.40;;;;;;5003671;28;20053;-72
2023/05/02 09:50:56;;;;;;;2.25;0.52;;;20.20;59.40;;;;;;5004424;28;20085;-73
2023/05/02 09:53:27;;;;;;;2.60;0.70;;;20.30;59.50;;;;;;5000270;28;20054;-73
2023/05/02 09:56:04;;;;;;;1.77;0.40;;;20.30;59.50;;;;;;4999750;28;20585;-72
2023/05/02 09:58:32;;;;;;;1.38;0.32;;;20.30;59.50;;;;;;5000380;28;20431;-72
2023/05/02 10:00:59;;;;;;;1.80;0.40;;;20.30;59.30;;;;;;5001933;28;20042;-79
2023/05/02 10:03:28;;;;;;;1.17;0.30;;;20.40;59.40;;;;;;5008687;28;20065;-79
2023/05/02 10:05:55;;;;;;;1.40;0.38;;;20.40;59.40;;;;;;5007966;28;20064;-79
2023/05/02 10:08:27;;;;;;;1.38;0.30;;;20.40;59.40;;;;;;5009018;28;20053;-79
2023/05/02 10:10:56;;;;;;;1.60;0.40;;;20.50;59.40;;;;;;5002198;28;20474;-79
2023/05/02 10:13:26;;;;;;;2.08;0.60;;;20.40;59.40;;;;;;5007207;28;20054;-78
2023/05/02 10:16:00;;;;;;;1.23;0.45;;;20.40;59.40;;;;;;5006444;28;20066;-79
2023/05/02 10:18:29;;;;;;;2.40;0.65;;;20.40;59.40;;;;;;5007259;28;20057;-78
2023/05/02 10:20:58;;;;;;;1.20;0.32;;;20.50;59.40;;;;;;4999785;28;20046;-79
2023/05/02 10:23:30;;;;;;;2.63;0.70;;;20.40;59.40;;;;;;5007769;28;20482;-80
2023/05/02 10:25:59;;;;;;;1.52;0.30;;;20.40;59.40;;;;;;4996392;28;20407;-78
2023/05/02 10:28:27;;;;;;;1.73;0.38;;;20.50;60.10;;;;;;5006193;28;20081;-77
2023/05/02 10:30:54;;;;;;;1.17;0.40;;;20.50;59.40;;;;;;5007573;28;20050;-78
2023/05/02 10:33:22;;;;;;;1.70;0.50;;;20.40;59.40;;;;;;5004229;28;20643;-79
2023/05/02 10:35:50;;;;;;;1.65;0.40;;;20.40;59.40;;;;;;5007305;28;20049;-77
2023/05/02 10:38:19;;;;;;;1.27;0.50;;;20.40;59.40;;;;;;5009679;28;20054;-74
2023/05/02 10:40:58;;;;;;;2.65;0.50;;;20.40;59.50;;;;;;5000225;28;20050;-78
2023/05/02 10:43:28;;;;;;;1.63;0.50;;;20.40;59.50;;;;;;4999203;28;20054;-76
2023/05/02 10:45:55;;;;;;;3.42;0.60;;;20.40;59.50;;;;;;5005791;28;20049;-77
2023/05/02 10:48:25;;;;;;;1.63;0.50;;;20.40;60.20;;;;;;5005534;28;20054;-79
2023/05/02 10:50:54;;;;;;;1.60;0.40;;;20.40;59.50;;;;;;5006467;28;20058;-78
2023/05/02 10:53:30;;;;;;;2.13;0.40;;;20.50;59.60;;;;;;5009204;28;20053;-78
2023/05/02 10:56:24;;;;;;;1.20;0.40;;;20.50;59.60;;;;;;5011032;28;20418;-78
2023/05/02 10:58:52;;;;;;;2.90;0.30;;;20.50;59.60;;;;;;5010392;28;20053;-79
2023/05/02 11:01:38;;;;;;;2.13;0.38;;;20.60;59.60;;;;;;5007694;28;20116;-78
2023/05/02 11:04:06;;;;;;;1.10;0.20;;;20.60;59.70;;;;;;5007590;28;20397;-78
2023/05/02 11:06:34;;;;;;;1.75;0.35;;;20.50;60.10;;;;;;5009076;28;20050;-77
2023/05/02 11:09:34;;;;;;;2.10;0.50;;;20.50;59.50;;;;;;5006216;28;20073;-77
2023/05/02 11:12:04;;;;;;;1.55;0.32;;;20.60;59.50;;;;;;5011616;28;20053;-78
2023/05/02 11:14:50;;;;;;;2.83;0.40;;;20.50;59.50;;;;;;5007420;28;20042;-79
2023/05/02 11:17:17;;;;;;;1.63;0.30;;;20.50;59.50;;;;;;5006586;28;20844;-79
2023/05/02 11:20:27;;;;;;;1.50;0.30;;;20.60;59.60;;;;;;5009686;28;20462;-78
2023/05/02 11:22:58;;;;;;;2.15;0.30;;;20.60;59.60;;;;;;5004815;28;20502;-78
2023/05/02 11:25:40;;;;;;;1.65;0.43;;;20.60;59.60;;;;;;5009428;28;20057;-78
2023/05/02 11:28:46;;;;;;;1.67;0.43;;;20.60;59.60;;;;;;5002887;28;20061;-73
2023/05/02 11:32:02;;;;;;;1.50;0.30;;;20.60;59.60;;;;;;5003037;28;20054;-74
2023/05/02 11:34:39;;;;;;;1.98;0.40;;;20.60;59.60;;;;;;5001172;28;20499;-73
2023/05/02 11:37:11;;;;;;;1.90;0.43;;;20.60;59.50;;;;;;5008622;28;20045;-73
2023/05/02 11:39:38;;;;;;;1.42;0.40;;;20.60;59.50;;;;;;5007581;28;20115;-73
2023/05/02 11:42:06;;;;;;;1.73;0.50;;;20.60;59.50;;;;;;5006089;28;20049;-73
2023/05/02 11:44:34;;;;;;;1.40;0.45;;;20.60;59.60;;;;;;5009022;28;20046;-74
2023/05/02 11:47:02;;;;;;;2.80;0.43;;;20.60;59.70;;;;;;5000463;28;20046;-73
2023/05/02 11:49:31;;;;;;;2.47;0.45;;;20.60;59.60;;;;;;5007767;28;20104;-74
2023/05/02 11:51:59;;;;;;;1.63;0.40;;;20.60;59.50;;;;;;5007866;28;20041;-73
2023/05/02 11:54:26;;;;;;;1.77;0.32;;;20.60;59.50;;;;;;5008752;28;20527;-73
2023/05/02 11:56:53;;;;;;;1.40;0.30;;;20.60;59.50;;;;;;5008467;28;20119;-74
2023/05/02 11:59:20;;;;;;;1.88;0.40;;;20.60;59.50;;;;;;5004614;28;20053;-73
2023/05/02 12:01:52;;;;;;;1.65;0.22;;;20.60;60.10;;;;;;5007628;28;20137;-73
2023/05/02 12:04:22;;;;;;;1.85;0.30;;;20.60;59.50;;;;;;5010208;28;20052;-73
2023/05/02 12:06:56;;;;;;;1.85;0.30;;;20.60;59.50;;;;;;5007033;28;20068;-73
2023/05/02 12:09:23;;;;;;;1.40;0.40;;;20.70;59.60;;;;;;5007659;28;20514;-73
2023/05/02 12:11:52;;;;;;;1.10;0.30;;;20.60;59.50;;;;;;5008343;28;20058;-73
2023/05/02 12:14:27;;;;;;;1.83;0.22;;;20.70;59.60;;;;;;5006525;28;20561;-73
2023/05/02 12:16:56;;;;;;;1.80;0.40;;;20.60;59.60;;;;;;5007486;28;20140;-73
2023/05/02 12:19:23;;;;;;;1.50;0.35;;;20.60;59.60;;;;;;5008046;28;20125;-73
2023/05/02 12:21:50;;;;;;;1.67;0.35;;;20.60;59.50;;;;;;5014492;28;20053;-73
2023/05/02 12:24:18;;;;;;;1.85;0.35;;;20.60;59.60;;;;;;5010243;28;20555;-73
2023/05/02 12:26:45;;;;;;;1.33;0.40;;;20.60;59.60;;;;;;5008795;28;20064;-74
2023/05/02 12:29:12;;;;;;;1.13;0.30;;;20.60;59.60;;;;;;5007306;28;20057;-74
2023/05/02 12:31:39;;;;;;;1.17;0.50;;;20.60;59.60;;;;;;5009505;28;20406;-74
2023/05/02 12:34:07;;;;;;;1.55;0.50;;;20.60;59.60;;;;;;5006240;28;20061;-75
2023/05/02 12:36:35;;;;;;;1.25;0.40;;;20.60;59.60;;;;;;5004389;28;20054;-73
2023/05/02 12:39:03;;;;;;;1.13;0.25;;;20.60;60.20;;;;;;5009003;28;20053;-74
2023/05/02 12:41:34;;;;;;;1.80;0.47;;;20.60;60.20;;;;;;5008718;28;20042;-74
2023/05/02 12:44:01;;;;;;;1.10;0.52;;;20.70;59.60;;;;;;5004988;28;20046;-73
2023/05/02 12:46:28;;;;;;;1.83;0.32;;;20.60;59.50;;;;;;5004283;28;20058;-73
2023/05/02 12:49:02;;;;;;;1.65;0.32;;;20.60;60.10;;;;;;5007880;28;20060;-73
2023/05/02 12:51:31;;;;;;;1.15;0.30;;;20.60;59.50;;;;;;5008011;28;20038;-73
2023/05/02 12:53:58;;;;;;;1.70;0.30;;;20.70;59.60;;;;;;5007803;28;20063;-73
2023/05/02 12:56:30;;;;;;;0.95;0.30;;;20.70;59.50;;;;;;5008307;28;20049;-72
2023/05/02 12:58:59;;;;;;;1.33;0.20;;;20.70;59.60;;;;;;5008060;28;20165;-72